sensor_id;sensor_type;location;lat;lon;timestamp;pressure;altitude;pressure_sealevel;temperature;humidity
77124;BME280;66079;47.646;19.130;2023-07-08T00:00:24;100926.34;;;20.09;62.38
77124;BME280;66079;47.646;19.130;2023-07-08T00:03:27;100935.03;;;20.04;63.01
77124;BME280;66079;47.646;19.130;2023-07-08T00:06:30;100942.38;;;20.02;62.76
77124;BME280;66079;47.646;19.130;2023-07-08T00:09:32;100936.50;;;19.95;62.26
77124;BME280;66079;47.646;19.130;2023-07-08T00:12:35;100928.97;;;19.82;61.62
77124;BME280;66079;47.646;19.130;2023-07-08T00:15:39;100916.19;;;19.69;62.59
77124;BME280;66079;47.646;19.130;2023-07-08T00:18:42;100941.53;;;19.70;62.84
77124;BME280;66079;47.646;19.130;2023-07-08T00:21:45;100940.97;;;19.68;63.18
77124;BME280;66079;47.646;19.130;2023-07-08T00:24:48;100949.13;;;19.66;62.89
77124;BME280;66079;47.646;19.130;2023-07-08T00:27:50;100949.69;;;19.68;63.44
77124;BME280;66079;47.646;19.130;2023-07-08T00:30:53;100949.13;;;19.66;63.49
77124;BME280;66079;47.646;19.130;2023-07-08T00:33:56;100937.13;;;19.54;63.69
77124;BME280;66079;47.646;19.130;2023-07-08T00:36:59;100946.13;;;19.58;64.30
77124;BME280;66079;47.646;19.130;2023-07-08T00:40:13;100931.72;;;19.44;64.19
77124;BME280;66079;47.646;19.130;2023-07-08T00:43:17;100945.44;;;19.46;64.60
77124;BME280;66079;47.646;19.130;2023-07-08T00:49:48;100952.75;;;19.39;65.58
77124;BME280;66079;47.646;19.130;2023-07-08T00:53:23;100949.81;;;19.35;65.71
77124;BME280;66079;47.646;19.130;2023-07-08T00:56:34;100934.88;;;19.24;65.66
77124;BME280;66079;47.646;19.130;2023-07-08T00:59:46;100937.22;;;19.21;66.00
77124;BME280;66079;47.646;19.130;2023-07-08T01:02:53;100941.09;;;19.18;66.03
77124;BME280;66079;47.646;19.130;2023-07-08T01:05:58;100929.91;;;19.06;66.04
77124;BME280;66079;47.646;19.130;2023-07-08T01:09:05;100932.72;;;19.00;66.48
77124;BME280;66079;47.646;19.130;2023-07-08T01:12:14;100937.72;;;19.01;66.99
77124;BME280;66079;47.646;19.130;2023-07-08T01:15:20;100926.31;;;18.96;67.75
77124;BME280;66079;47.646;19.130;2023-07-08T01:18:24;100934.69;;;18.93;68.17
77124;BME280;66079;47.646;19.130;2023-07-08T01:21:35;100935.72;;;18.92;67.96
77124;BME280;66079;47.646;19.130;2023-07-08T01:24:41;100936.38;;;18.82;68.32
77124;BME280;66079;47.646;19.130;2023-07-08T01:27:48;100921.41;;;18.66;68.95
77124;BME280;66079;47.646;19.130;2023-07-08T01:30:51;100924.13;;;18.54;69.22
77124;BME280;66079;47.646;19.130;2023-07-08T01:33:54;100939.44;;;18.58;69.77
77124;BME280;66079;47.646;19.130;2023-07-08T01:37:00;100940.72;;;18.55;69.55
77124;BME280;66079;47.646;19.130;2023-07-08T01:40:15;100946.72;;;18.50;69.81
77124;BME280;66079;47.646;19.130;2023-07-08T01:43:18;100931.28;;;18.42;69.83
77124;BME280;66079;47.646;19.130;2023-07-08T01:46:25;100922.66;;;18.30;70.61
77124;BME280;66079;47.646;19.130;2023-07-08T01:49:29;100937.25;;;18.38;70.22
77124;BME280;66079;47.646;19.130;2023-07-08T01:52:32;100928.84;;;18.24;70.38
77124;BME280;66079;47.646;19.130;2023-07-08T01:55:35;100942.56;;;18.26;70.20
77124;BME280;66079;47.646;19.130;2023-07-08T01:58:37;100936.66;;;18.19;70.13
77124;BME280;66079;47.646;19.130;2023-07-08T02:01:40;100934.50;;;18.16;70.84
77124;BME280;66079;47.646;19.130;2023-07-08T02:04:43;100935.78;;;18.14;71.08
77124;BME280;66079;47.646;19.130;2023-07-08T02:07:47;100927.00;;;18.08;72.65
77124;BME280;66079;47.646;19.130;2023-07-08T02:10:55;100938.47;;;18.02;72.90
77124;BME280;66079;47.646;19.130;2023-07-08T02:13:58;100934.94;;;17.97;72.81
77124;BME280;66079;47.646;19.130;2023-07-08T02:17:03;100933.50;;;17.89;73.91
77124;BME280;66079;47.646;19.130;2023-07-08T02:20:08;100910.59;;;17.73;74.24
77124;BME280;66079;47.646;19.130;2023-07-08T02:23:11;100922.13;;;17.72;74.26
77124;BME280;66079;47.646;19.130;2023-07-08T02:26:14;100922.34;;;17.71;74.43
77124;BME280;66079;47.646;19.130;2023-07-08T02:29:16;100932.97;;;17.76;74.83
77124;BME280;66079;47.646;19.130;2023-07-08T02:32:19;100944.56;;;17.63;75.44
77124;BME280;66079;47.646;19.130;2023-07-08T02:35:22;100939.97;;;17.59;76.00
77124;BME280;66079;47.646;19.130;2023-07-08T02:38:25;100937.59;;;17.57;76.25
77124;BME280;66079;47.646;19.130;2023-07-08T02:41:27;100950.97;;;17.56;76.06
77124;BME280;66079;47.646;19.130;2023-07-08T02:44:30;100946.19;;;17.53;75.55
77124;BME280;66079;47.646;19.130;2023-07-08T02:47:33;100958.06;;;17.44;75.20
77124;BME280;66079;47.646;19.130;2023-07-08T02:50:36;100943.09;;;17.33;74.50
77124;BME280;66079;47.646;19.130;2023-07-08T02:53:38;100931.38;;;17.23;74.73
77124;BME280;66079;47.646;19.130;2023-07-08T02:56:41;100957.50;;;17.30;74.21
77124;BME280;66079;47.646;19.130;2023-07-08T02:59:43;100959.56;;;17.28;73.55
77124;BME280;66079;47.646;19.130;2023-07-08T03:02:45;100927.59;;;17.08;72.86
77124;BME280;66079;47.646;19.130;2023-07-08T03:06:00;100948.72;;;17.13;72.74
77124;BME280;66079;47.646;19.130;2023-07-08T03:09:03;100967.34;;;17.23;72.03
77124;BME280;66079;47.646;19.130;2023-07-08T03:12:07;100952.84;;;17.09;72.06
77124;BME280;66079;47.646;19.130;2023-07-08T03:15:10;100949.41;;;17.08;72.06
77124;BME280;66079;47.646;19.130;2023-07-08T03:18:12;100940.06;;;17.01;72.19
77124;BME280;66079;47.646;19.130;2023-07-08T03:21:16;100949.88;;;17.05;72.01
77124;BME280;66079;47.646;19.130;2023-07-08T03:24:19;100967.56;;;17.10;71.75
77124;BME280;66079;47.646;19.130;2023-07-08T03:27:23;100966.44;;;17.17;71.79
77124;BME280;66079;47.646;19.130;2023-07-08T03:30:26;100959.47;;;17.11;71.85
77124;BME280;66079;47.646;19.130;2023-07-08T03:33:29;100959.81;;;17.15;71.43
77124;BME280;66079;47.646;19.130;2023-07-08T03:36:31;100951.81;;;17.10;71.41
77124;BME280;66079;47.646;19.130;2023-07-08T03:39:34;100969.25;;;17.27;71.01
77124;BME280;66079;47.646;19.130;2023-07-08T03:42:36;100969.59;;;17.31;70.77
77124;BME280;66079;47.646;19.130;2023-07-08T03:45:40;100976.03;;;17.35;70.45
77124;BME280;66079;47.646;19.130;2023-07-08T03:48:45;100980.47;;;17.46;70.25
77124;BME280;66079;47.646;19.130;2023-07-08T03:51:50;100970.06;;;17.51;69.51
77124;BME280;66079;47.646;19.130;2023-07-08T03:54:53;100987.66;;;17.62;69.50
77124;BME280;66079;47.646;19.130;2023-07-08T03:57:57;100979.84;;;17.67;69.29
77124;BME280;66079;47.646;19.130;2023-07-08T04:01:01;100990.81;;;17.76;68.90
77124;BME280;66079;47.646;19.130;2023-07-08T04:04:05;100978.00;;;17.79;68.58
77124;BME280;66079;47.646;19.130;2023-07-08T04:07:09;100989.19;;;17.86;68.38
77124;BME280;66079;47.646;19.130;2023-07-08T04:10:15;100987.59;;;17.85;68.56
77124;BME280;66079;47.646;19.130;2023-07-08T04:13:19;100985.88;;;17.91;68.49
77124;BME280;66079;47.646;19.130;2023-07-08T04:16:25;100973.31;;;17.81;68.16
77124;BME280;66079;47.646;19.130;2023-07-08T04:19:31;100983.47;;;17.89;67.94
77124;BME280;66079;47.646;19.130;2023-07-08T04:22:34;100960.50;;;17.85;67.07
77124;BME280;66079;47.646;19.130;2023-07-08T04:25:37;100984.00;;;18.03;67.36
77124;BME280;66079;47.646;19.130;2023-07-08T04:28:41;100969.75;;;18.15;66.38
77124;BME280;66079;47.646;19.130;2023-07-08T04:31:43;100987.63;;;18.30;65.56
77124;BME280;66079;47.646;19.130;2023-07-08T04:34:46;100985.44;;;18.38;65.27
77124;BME280;66079;47.646;19.130;2023-07-08T04:37:49;100983.28;;;18.35;64.88
77124;BME280;66079;47.646;19.130;2023-07-08T04:40:53;100992.06;;;18.41;65.05
77124;BME280;66079;47.646;19.130;2023-07-08T04:43:56;100991.28;;;18.40;65.58
77124;BME280;66079;47.646;19.130;2023-07-08T04:47:00;100979.81;;;18.46;65.27
77124;BME280;66079;47.646;19.130;2023-07-08T04:50:03;100981.22;;;18.54;65.11
77124;BME280;66079;47.646;19.130;2023-07-08T04:53:06;100983.78;;;18.49;65.64
77124;BME280;66079;47.646;19.130;2023-07-08T04:56:08;100990.25;;;18.58;65.10
77124;BME280;66079;47.646;19.130;2023-07-08T04:59:14;100980.31;;;18.60;65.20
77124;BME280;66079;47.646;19.130;2023-07-08T05:02:16;100992.75;;;18.65;65.14
77124;BME280;66079;47.646;19.130;2023-07-08T05:05:20;101002.00;;;18.84;64.88
77124;BME280;66079;47.646;19.130;2023-07-08T05:08:22;100991.44;;;18.67;65.61
77124;BME280;66079;47.646;19.130;2023-07-08T05:11:25;100990.09;;;18.65;65.44
77124;BME280;66079;47.646;19.130;2023-07-08T05:14:27;101005.75;;;18.88;65.15
77124;BME280;66079;47.646;19.130;2023-07-08T05:17:30;101002.88;;;19.06;64.92
77124;BME280;66079;47.646;19.130;2023-07-08T05:20:33;101010.44;;;19.35;64.11
77124;BME280;66079;47.646;19.130;2023-07-08T05:23:37;100989.81;;;19.49;62.96
77124;BME280;66079;47.646;19.130;2023-07-08T05:26:40;101013.19;;;19.83;62.64
77124;BME280;66079;47.646;19.130;2023-07-08T05:29:42;101024.78;;;19.82;62.13
77124;BME280;66079;47.646;19.130;2023-07-08T05:32:45;101029.53;;;20.07;61.07
77124;BME280;66079;47.646;19.130;2023-07-08T05:35:48;101015.22;;;20.25;60.79
77124;BME280;66079;47.646;19.130;2023-07-08T05:38:50;101018.97;;;20.55;59.68
77124;BME280;66079;47.646;19.130;2023-07-08T05:41:53;101010.75;;;20.83;58.51
77124;BME280;66079;47.646;19.130;2023-07-08T05:44:55;101005.22;;;21.22;57.88
77124;BME280;66079;47.646;19.130;2023-07-08T05:47:58;101013.25;;;21.37;59.08
77124;BME280;66079;47.646;19.130;2023-07-08T05:51:01;101019.69;;;21.51;58.93
77124;BME280;66079;47.646;19.130;2023-07-08T05:54:03;101037.25;;;21.72;58.32
77124;BME280;66079;47.646;19.130;2023-07-08T05:57:07;101037.66;;;21.49;58.50
77124;BME280;66079;47.646;19.130;2023-07-08T06:00:11;101033.47;;;21.53;59.57
77124;BME280;66079;47.646;19.130;2023-07-08T06:03:14;101037.19;;;21.62;59.57
77124;BME280;66079;47.646;19.130;2023-07-08T06:06:17;101031.94;;;21.72;59.03
77124;BME280;66079;47.646;19.130;2023-07-08T06:09:19;101041.38;;;22.09;57.87
77124;BME280;66079;47.646;19.130;2023-07-08T06:12:22;101022.63;;;22.31;56.35
77124;BME280;66079;47.646;19.130;2023-07-08T06:15:24;101025.34;;;22.81;53.97
77124;BME280;66079;47.646;19.130;2023-07-08T06:18:27;101036.19;;;23.25;52.28
77124;BME280;66079;47.646;19.130;2023-07-08T06:21:30;101038.03;;;23.19;52.16
77124;BME280;66079;47.646;19.130;2023-07-08T06:24:32;101010.22;;;22.97;52.62
77124;BME280;66079;47.646;19.130;2023-07-08T06:27:35;101027.72;;;22.93;52.78
77124;BME280;66079;47.646;19.130;2023-07-08T06:30:37;101044.16;;;23.00;52.20
77124;BME280;66079;47.646;19.130;2023-07-08T06:33:40;101031.19;;;22.68;52.61
77124;BME280;66079;47.646;19.130;2023-07-08T06:36:42;101038.59;;;22.66;51.54
77124;BME280;66079;47.646;19.130;2023-07-08T06:39:45;101033.28;;;22.76;51.82
77124;BME280;66079;47.646;19.130;2023-07-08T06:42:47;101027.44;;;22.99;51.22
77124;BME280;66079;47.646;19.130;2023-07-08T06:46:09;101024.53;;;23.31;49.87
77124;BME280;66079;47.646;19.130;2023-07-08T06:49:11;101018.69;;;23.29;49.69
77124;BME280;66079;47.646;19.130;2023-07-08T06:52:14;101027.94;;;23.46;50.01
77124;BME280;66079;47.646;19.130;2023-07-08T06:55:17;101024.72;;;23.59;47.53
77124;BME280;66079;47.646;19.130;2023-07-08T06:58:20;101027.47;;;23.98;47.61
77124;BME280;66079;47.646;19.130;2023-07-08T07:01:23;101013.97;;;23.85;47.13
77124;BME280;66079;47.646;19.130;2023-07-08T07:04:26;101015.13;;;24.22;47.74
77124;BME280;66079;47.646;19.130;2023-07-08T07:07:28;101010.72;;;23.93;47.06
77124;BME280;66079;47.646;19.130;2023-07-08T07:10:31;101017.06;;;24.12;45.24
77124;BME280;66079;47.646;19.130;2023-07-08T07:13:33;101018.13;;;24.06;45.55
77124;BME280;66079;47.646;19.130;2023-07-08T07:16:36;101018.03;;;24.21;42.66
77124;BME280;66079;47.646;19.130;2023-07-08T07:19:38;101019.47;;;24.47;43.05
77124;BME280;66079;47.646;19.130;2023-07-08T07:22:41;101006.03;;;24.67;41.55
77124;BME280;66079;47.646;19.130;2023-07-08T07:25:45;101013.28;;;24.90;40.79
77124;BME280;66079;47.646;19.130;2023-07-08T07:28:49;101000.03;;;24.85;38.69
77124;BME280;66079;47.646;19.130;2023-07-08T07:31:52;101017.09;;;25.08;38.57
77124;BME280;66079;47.646;19.130;2023-07-08T07:34:55;101009.19;;;25.03;37.72
77124;BME280;66079;47.646;19.130;2023-07-08T07:37:57;101003.13;;;25.21;38.35
77124;BME280;66079;47.646;19.130;2023-07-08T07:41:00;101010.88;;;25.46;38.26
77124;BME280;66079;47.646;19.130;2023-07-08T07:44:07;101015.53;;;25.59;38.53
77124;BME280;66079;47.646;19.130;2023-07-08T07:47:09;101009.13;;;25.60;38.45
77124;BME280;66079;47.646;19.130;2023-07-08T07:50:13;100989.28;;;25.47;38.29
77124;BME280;66079;47.646;19.130;2023-07-08T07:53:15;101012.38;;;25.75;38.41
77124;BME280;66079;47.646;19.130;2023-07-08T07:56:18;100983.16;;;25.70;37.49
77124;BME280;66079;47.646;19.130;2023-07-08T07:59:21;101017.69;;;25.99;37.45
77124;BME280;66079;47.646;19.130;2023-07-08T08:02:23;100995.00;;;26.01;37.41
77124;BME280;66079;47.646;19.130;2023-07-08T08:05:26;100998.72;;;26.00;36.40
77124;BME280;66079;47.646;19.130;2023-07-08T08:08:28;101000.72;;;26.32;37.05
77124;BME280;66079;47.646;19.130;2023-07-08T08:11:31;100991.84;;;26.37;37.43
77124;BME280;66079;47.646;19.130;2023-07-08T08:14:33;100983.25;;;26.21;37.12
77124;BME280;66079;47.646;19.130;2023-07-08T08:17:36;100986.22;;;26.19;36.81
77124;BME280;66079;47.646;19.130;2023-07-08T08:20:38;100990.56;;;26.15;37.76
77124;BME280;66079;47.646;19.130;2023-07-08T08:23:42;100987.47;;;26.41;37.16
77124;BME280;66079;47.646;19.130;2023-07-08T08:26:45;100986.72;;;26.40;36.77
77124;BME280;66079;47.646;19.130;2023-07-08T08:29:48;100975.41;;;26.30;36.46
77124;BME280;66079;47.646;19.130;2023-07-08T08:32:50;100985.59;;;26.60;36.96
77124;BME280;66079;47.646;19.130;2023-07-08T08:35:53;100981.16;;;27.14;35.78
77124;BME280;66079;47.646;19.130;2023-07-08T08:38:56;100988.16;;;26.97;35.84
77124;BME280;66079;47.646;19.130;2023-07-08T08:41:58;100980.25;;;26.92;36.02
77124;BME280;66079;47.646;19.130;2023-07-08T08:45:03;100970.56;;;26.96;34.51
77124;BME280;66079;47.646;19.130;2023-07-08T08:48:10;100972.28;;;27.19;32.21
77124;BME280;66079;47.646;19.130;2023-07-08T08:51:16;100973.97;;;27.28;33.65
77124;BME280;66079;47.646;19.130;2023-07-08T08:54:18;100982.56;;;27.39;33.70
77124;BME280;66079;47.646;19.130;2023-07-08T08:57:37;100989.31;;;27.50;33.08
77124;BME280;66079;47.646;19.130;2023-07-08T09:00:51;100972.81;;;27.97;31.91
77124;BME280;66079;47.646;19.130;2023-07-08T09:04:02;100973.94;;;28.05;31.72
77124;BME280;66079;47.646;19.130;2023-07-08T09:07:16;100954.97;;;28.06;33.29
77124;BME280;66079;47.646;19.130;2023-07-08T09:10:32;100971.13;;;28.23;33.05
77124;BME280;66079;47.646;19.130;2023-07-08T09:13:38;100965.28;;;28.43;32.59
77124;BME280;66079;47.646;19.130;2023-07-08T09:17:05;100963.72;;;28.42;31.55
77124;BME280;66079;47.646;19.130;2023-07-08T09:20:19;100959.41;;;28.55;31.09
77124;BME280;66079;47.646;19.130;2023-07-08T09:23:27;100937.69;;;28.34;31.95
77124;BME280;66079;47.646;19.130;2023-07-08T09:26:32;100952.19;;;28.55;31.56
77124;BME280;66079;47.646;19.130;2023-07-08T09:29:35;100955.69;;;28.64;31.66
77124;BME280;66079;47.646;19.130;2023-07-08T09:32:38;100952.81;;;29.22;30.26
77124;BME280;66079;47.646;19.130;2023-07-08T09:35:45;100964.53;;;29.52;29.92
77124;BME280;66079;47.646;19.130;2023-07-08T09:38:50;100969.81;;;30.08;29.01
77124;BME280;66079;47.646;19.130;2023-07-08T09:41:53;100961.22;;;29.46;28.48
77124;BME280;66079;47.646;19.130;2023-07-08T09:44:57;100963.31;;;29.10;29.23
77124;BME280;66079;47.646;19.130;2023-07-08T09:48:01;100954.31;;;28.76;29.67
77124;BME280;66079;47.646;19.130;2023-07-08T09:51:05;100969.72;;;29.01;29.17
77124;BME280;66079;47.646;19.130;2023-07-08T09:54:07;100969.28;;;28.77;29.51
77124;BME280;66079;47.646;19.130;2023-07-08T10:00:28;100964.69;;;27.75;30.91
77124;BME280;66079;47.646;19.130;2023-07-08T10:03:34;100957.44;;;28.69;29.76
77124;BME280;66079;47.646;19.130;2023-07-08T10:06:38;100949.00;;;28.84;29.27
77124;BME280;66079;47.646;19.130;2023-07-08T10:09:40;100953.06;;;28.73;28.97
77124;BME280;66079;47.646;19.130;2023-07-08T10:13:01;100945.59;;;28.61;30.03
77124;BME280;66079;47.646;19.130;2023-07-08T10:16:15;100941.03;;;28.93;29.21
77124;BME280;66079;47.646;19.130;2023-07-08T10:19:20;100929.28;;;29.67;27.21
77124;BME280;66079;47.646;19.130;2023-07-08T10:22:42;100954.38;;;30.22;27.56
77124;BME280;66079;47.646;19.130;2023-07-08T10:29:33;100952.28;;;30.02;27.19
77124;BME280;66079;47.646;19.130;2023-07-08T10:33:19;100941.44;;;29.90;27.88
77124;BME280;66079;47.646;19.130;2023-07-08T10:36:50;100932.56;;;30.41;26.86
77124;BME280;66079;47.646;19.130;2023-07-08T10:39:55;100932.28;;;30.88;26.08
77124;BME280;66079;47.646;19.130;2023-07-08T10:59:59;100921.38;;;33.06;23.13
77124;BME280;66079;47.646;19.130;2023-07-08T11:12:44;100908.84;;;38.08;17.74
77124;BME280;66079;47.646;19.130;2023-07-08T11:15:56;100904.84;;;38.35;16.95
77124;BME280;66079;47.646;19.130;2023-07-08T11:19:34;100910.94;;;39.16;16.53
77124;BME280;66079;47.646;19.130;2023-07-08T11:22:47;100900.69;;;39.81;15.76
77124;BME280;66079;47.646;19.130;2023-07-08T11:25:54;100892.31;;;39.21;15.82
77124;BME280;66079;47.646;19.130;2023-07-08T11:29:02;100898.44;;;40.01;15.54
77124;BME280;66079;47.646;19.130;2023-07-08T11:32:08;100885.16;;;41.12;14.62
77124;BME280;66079;47.646;19.130;2023-07-08T11:35:32;100891.50;;;38.60;16.32
77124;BME280;66079;47.646;19.130;2023-07-08T11:38:35;100885.22;;;40.06;14.81
77124;BME280;66079;47.646;19.130;2023-07-08T11:41:38;100871.28;;;38.57;16.23
77124;BME280;66079;47.646;19.130;2023-07-08T11:44:42;100880.25;;;38.17;16.33
77124;BME280;66079;47.646;19.130;2023-07-08T11:47:48;100868.84;;;37.68;16.45
77124;BME280;66079;47.646;19.130;2023-07-08T11:50:52;100864.84;;;38.79;16.13
77124;BME280;66079;47.646;19.130;2023-07-08T11:57:42;100865.94;;;38.71;16.24
77124;BME280;66079;47.646;19.130;2023-07-08T12:01:05;100862.81;;;41.45;14.00
77124;BME280;66079;47.646;19.130;2023-07-08T12:07:17;100840.41;;;40.95;14.24
77124;BME280;66079;47.646;19.130;2023-07-08T12:13:28;100856.19;;;42.11;13.30
77124;BME280;66079;47.646;19.130;2023-07-08T12:16:32;100855.63;;;41.79;13.41
77124;BME280;66079;47.646;19.130;2023-07-08T12:19:35;100850.19;;;41.72;13.26
77124;BME280;66079;47.646;19.130;2023-07-08T12:22:39;100850.34;;;41.40;13.48
77124;BME280;66079;47.646;19.130;2023-07-08T12:25:42;100848.22;;;40.68;14.71
77124;BME280;66079;47.646;19.130;2023-07-08T12:28:45;100842.75;;;42.34;13.42
77124;BME280;66079;47.646;19.130;2023-07-08T12:31:48;100848.38;;;42.13;12.99
77124;BME280;66079;47.646;19.130;2023-07-08T12:34:51;100847.81;;;43.10;12.96
77124;BME280;66079;47.646;19.130;2023-07-08T12:38:01;100836.16;;;43.89;12.12
77124;BME280;66079;47.646;19.130;2023-07-08T12:41:10;100837.47;;;43.24;12.55
77124;BME280;66079;47.646;19.130;2023-07-08T12:44:19;100843.41;;;42.86;12.85
77124;BME280;66079;47.646;19.130;2023-07-08T12:47:22;100824.84;;;43.00;12.51
77124;BME280;66079;47.646;19.130;2023-07-08T12:50:25;100826.94;;;44.26;11.61
77124;BME280;66079;47.646;19.130;2023-07-08T12:53:27;100823.06;;;44.46;11.30
77124;BME280;66079;47.646;19.130;2023-07-08T12:56:30;100824.25;;;44.88;11.44
77124;BME280;66079;47.646;19.130;2023-07-08T12:59:33;100826.16;;;45.11;11.23
77124;BME280;66079;47.646;19.130;2023-07-08T13:02:36;100817.25;;;43.45;11.89
77124;BME280;66079;47.646;19.130;2023-07-08T13:05:39;100819.13;;;44.24;11.44
77124;BME280;66079;47.646;19.130;2023-07-08T13:08:42;100819.44;;;45.12;11.08
77124;BME280;66079;47.646;19.130;2023-07-08T13:11:46;100829.78;;;43.12;12.05
77124;BME280;66079;47.646;19.130;2023-07-08T13:14:54;100811.81;;;43.42;12.04
77124;BME280;66079;47.646;19.130;2023-07-08T13:17:59;100813.88;;;43.87;11.55
77124;BME280;66079;47.646;19.130;2023-07-08T13:21:05;100805.31;;;43.59;11.80
77124;BME280;66079;47.646;19.130;2023-07-08T13:24:10;100809.59;;;42.99;12.63
77124;BME280;66079;47.646;19.130;2023-07-08T13:27:25;100802.25;;;44.49;11.30
77124;BME280;66079;47.646;19.130;2023-07-08T13:30:30;100799.84;;;44.51;11.50
77124;BME280;66079;47.646;19.130;2023-07-08T13:33:34;100802.00;;;42.84;12.39
77124;BME280;66079;47.646;19.130;2023-07-08T13:36:39;100812.56;;;42.82;12.23
77124;BME280;66079;47.646;19.130;2023-07-08T13:39:44;100815.63;;;44.47;11.45
77124;BME280;66079;47.646;19.130;2023-07-08T13:42:49;100819.91;;;45.26;11.21
77124;BME280;66079;47.646;19.130;2023-07-08T13:45:53;100808.00;;;45.85;10.78
77124;BME280;66079;47.646;19.130;2023-07-08T13:49:00;100806.25;;;46.07;10.47
77124;BME280;66079;47.646;19.130;2023-07-08T13:52:13;100811.56;;;45.65;11.24
77124;BME280;66079;47.646;19.130;2023-07-08T13:55:18;100801.63;;;44.61;11.25
77124;BME280;66079;47.646;19.130;2023-07-08T13:58:27;100812.03;;;46.57;10.18
77124;BME280;66079;47.646;19.130;2023-07-08T14:01:31;100802.13;;;46.15;10.41
77124;BME280;66079;47.646;19.130;2023-07-08T14:04:35;100807.97;;;47.03;9.99
77124;BME280;66079;47.646;19.130;2023-07-08T14:07:38;100805.22;;;46.17;10.18
77124;BME280;66079;47.646;19.130;2023-07-08T14:10:41;100796.31;;;45.81;10.80
77124;BME280;66079;47.646;19.130;2023-07-08T14:13:44;100804.38;;;44.61;11.23
77124;BME280;66079;47.646;19.130;2023-07-08T14:16:49;100791.34;;;45.04;10.96
77124;BME280;66079;47.646;19.130;2023-07-08T14:19:53;100803.78;;;45.96;10.59
77124;BME280;66079;47.646;19.130;2023-07-08T14:22:56;100797.84;;;46.71;9.80
77124;BME280;66079;47.646;19.130;2023-07-08T14:25:58;100795.44;;;46.44;9.90
77124;BME280;66079;47.646;19.130;2023-07-08T14:29:01;100794.81;;;46.53;10.21
77124;BME280;66079;47.646;19.130;2023-07-08T14:32:04;100792.88;;;47.07;9.21
77124;BME280;66079;47.646;19.130;2023-07-08T14:35:19;100795.53;;;45.96;9.86
77124;BME280;66079;47.646;19.130;2023-07-08T14:38:25;100791.13;;;47.13;9.96
77124;BME280;66079;47.646;19.130;2023-07-08T14:41:28;100791.88;;;47.14;9.42
77124;BME280;66079;47.646;19.130;2023-07-08T14:44:35;100786.00;;;47.99;8.84
77124;BME280;66079;47.646;19.130;2023-07-08T14:47:38;100797.72;;;47.03;9.77
77124;BME280;66079;47.646;19.130;2023-07-08T14:50:41;100783.13;;;45.04;10.86
77124;BME280;66079;47.646;19.130;2023-07-08T14:53:43;100790.44;;;45.62;10.43
77124;BME280;66079;47.646;19.130;2023-07-08T14:56:47;100786.59;;;45.44;10.45
77124;BME280;66079;47.646;19.130;2023-07-08T14:59:50;100797.63;;;44.85;11.09
77124;BME280;66079;47.646;19.130;2023-07-08T15:02:53;100775.94;;;43.86;11.72
77124;BME280;66079;47.646;19.130;2023-07-08T15:05:56;100777.13;;;46.09;10.36
77124;BME280;66079;47.646;19.130;2023-07-08T15:08:59;100766.78;;;46.29;10.26
77124;BME280;66079;47.646;19.130;2023-07-08T15:12:01;100773.97;;;45.46;10.44
77124;BME280;66079;47.646;19.130;2023-07-08T15:15:08;100781.34;;;45.49;10.51
77124;BME280;66079;47.646;19.130;2023-07-08T15:18:16;100759.13;;;45.44;10.87
77124;BME280;66079;47.646;19.130;2023-07-08T15:21:20;100763.34;;;45.13;11.17
77124;BME280;66079;47.646;19.130;2023-07-08T15:24:22;100773.78;;;44.82;10.62
77124;BME280;66079;47.646;19.130;2023-07-08T15:27:27;100766.84;;;45.81;10.08
77124;BME280;66079;47.646;19.130;2023-07-08T15:30:30;100764.34;;;45.70;9.86
77124;BME280;66079;47.646;19.130;2023-07-08T15:33:33;100752.84;;;45.59;10.11
77124;BME280;66079;47.646;19.130;2023-07-08T15:36:35;100763.47;;;43.31;11.68
77124;BME280;66079;47.646;19.130;2023-07-08T15:39:38;100760.56;;;43.15;12.03
77124;BME280;66079;47.646;19.130;2023-07-08T15:42:41;100733.28;;;44.70;10.70
77124;BME280;66079;47.646;19.130;2023-07-08T15:45:45;100730.44;;;44.74;10.73
77124;BME280;66079;47.646;19.130;2023-07-08T15:48:47;100726.16;;;45.60;10.49
77124;BME280;66079;47.646;19.130;2023-07-08T15:51:50;100738.63;;;44.15;11.15
77124;BME280;66079;47.646;19.130;2023-07-08T15:54:53;100728.13;;;44.33;11.15
77124;BME280;66079;47.646;19.130;2023-07-08T15:58:06;100731.97;;;44.16;10.93
77124;BME280;66079;47.646;19.130;2023-07-08T16:01:20;100722.88;;;44.97;10.78
77124;BME280;66079;47.646;19.130;2023-07-08T16:04:32;100722.41;;;43.58;11.27
77124;BME280;66079;47.646;19.130;2023-07-08T16:07:35;100733.41;;;42.68;11.92
77124;BME280;66079;47.646;19.130;2023-07-08T16:10:38;100716.44;;;42.80;12.23
77124;BME280;66079;47.646;19.130;2023-07-08T16:13:42;100716.31;;;43.70;11.97
77124;BME280;66079;47.646;19.130;2023-07-08T16:16:46;100733.78;;;44.45;11.57
77124;BME280;66079;47.646;19.130;2023-07-08T16:19:49;100718.44;;;42.42;12.60
77124;BME280;66079;47.646;19.130;2023-07-08T16:22:52;100718.06;;;41.52;13.19
77124;BME280;66079;47.646;19.130;2023-07-08T16:25:55;100718.84;;;40.94;13.48
77124;BME280;66079;47.646;19.130;2023-07-08T16:28:59;100723.19;;;41.50;13.76
77124;BME280;66079;47.646;19.130;2023-07-08T16:32:02;100715.97;;;41.73;13.44
77124;BME280;66079;47.646;19.130;2023-07-08T16:35:05;100715.22;;;41.73;13.72
77124;BME280;66079;47.646;19.130;2023-07-08T16:38:07;100712.22;;;40.91;14.73
77124;BME280;66079;47.646;19.130;2023-07-08T16:41:12;100712.44;;;41.25;13.69